CVG weather

Cincinnati Northern Kentucky International Airport
Cincinnati, Kentucky, United States

Public forecast

Using degrees Fahrenheit for public forecast. Weather courtesy of forecast.io.

METAR (pilot weather report)

Retrieved 2019/03/20 01:52 UTC (1 hour ago):

KCVG 200152Z 35003KT 10SM BKN240 OVC300 06/M06 A3033 RMK AO2 SLP273 T00611056

TAF (pilot weather forecast)

Forecast is more than 12 hours old.

Retrieved 2019/03/19 00:30 UTC (1 day ago):

TAF KCVG 192329Z 2000/2106 00000KT P6SM BKN250 FM200800 15004KT P6SM SCT100 BKN150 FM201500 18008KT P6SM BKN100 FM201800 20012G18KT P6SM VCSH BKN080 FM210000 23008KT P6SM VCSH OVC050 FM210200 23008KT 6SM -SHRA OVC040 FM210500 24008KT 4SM -SHRA OVC022